Time;durP1;ratioP1;P1;durP2;ratioP2;P2;SDS_P1;SDS_P2;PMS_P1;PMS_P2;Temp;Humidity;BMP_temperature;BMP_pressure;BME280_temperature;BME280_humidity;BME280_pressure;Samples;Min_cycle;Max_cycle;Signal;HPM_P1;HPM_P2
2021/03/21 00:00:54;;;;;;;3.30;2.07;;;-1.80;96.30;;;;;;4976511;28;20898;-76
2021/03/21 00:03:20;;;;;;;3.73;2.30;;;-1.70;96.30;;;;;;4976328;28;20218;-76
2021/03/21 00:05:46;;;;;;;5.50;2.13;;;-1.70;96.30;;;;;;4975191;28;20182;-78
2021/03/21 00:08:16;;;;;;;2.97;1.83;;;-1.60;96.30;;;;;;4975959;28;20421;-76
2021/03/21 00:10:46;;;;;;;2.90;2.10;;;-1.60;96.30;;;;;;4976606;28;20405;-76
2021/03/21 00:13:12;;;;;;;3.67;1.87;;;-1.60;96.30;;;;;;4974908;28;20881;-77
2021/03/21 00:15:37;;;;;;;5.50;2.40;;;-1.60;96.30;;;;;;4974981;28;20425;-76
2021/03/21 00:18:03;;;;;;;8.37;2.30;;;-1.60;96.30;;;;;;4975800;28;20206;-76
2021/03/21 00:20:33;;;;;;;2.33;1.63;;;-1.60;96.30;;;;;;4975864;28;20178;-77
2021/03/21 00:22:59;;;;;;;5.20;2.37;;;-1.70;96.30;;;;;;4974919;28;20653;-78
2021/03/21 00:25:26;;;;;;;2.27;1.80;;;-1.70;96.30;;;;;;4976151;28;20422;-77
2021/03/21 00:27:52;;;;;;;8.30;2.10;;;-1.60;96.30;;;;;;4975698;28;20544;-77
2021/03/21 00:30:32;;;;;;;2.03;1.70;;;-1.60;96.30;;;;;;4976115;28;20417;-76
2021/03/21 00:32:58;;;;;;;3.13;1.60;;;-1.60;96.30;;;;;;4975801;28;20496;-76
2021/03/21 00:35:24;;;;;;;4.50;2.20;;;-1.60;96.30;;;;;;4975962;28;20441;-76
2021/03/21 00:37:54;;;;;;;3.53;2.80;;;-1.60;96.30;;;;;;4975953;28;20194;-76
2021/03/21 00:40:20;;;;;;;2.37;1.70;;;-1.60;96.30;;;;;;4976008;28;20410;-76
2021/03/21 00:42:46;;;;;;;8.77;2.73;;;-1.50;96.30;;;;;;4975720;28;20476;-77
2021/03/21 00:45:14;;;;;;;3.53;1.97;;;-1.50;96.30;;;;;;4975680;28;20178;-77
2021/03/21 00:47:39;;;;;;;5.60;1.97;;;-1.40;96.30;;;;;;4975111;28;20416;-77
2021/03/21 00:50:08;;;;;;;3.17;1.67;;;-1.40;96.30;;;;;;4975599;28;20414;-76
2021/03/21 00:52:34;;;;;;;3.00;1.93;;;-1.40;96.30;;;;;;4974242;28;20583;-77
2021/03/21 00:54:59;;;;;;;2.27;1.70;;;-1.40;96.30;;;;;;4975551;28;20444;-77
2021/03/21 00:57:25;;;;;;;6.83;2.80;;;-1.40;96.30;;;;;;4974918;28;20522;-77
2021/03/21 00:59:50;;;;;;;2.00;1.57;;;-1.40;96.30;;;;;;4974458;28;20175;-77
2021/03/21 05:00:33;;;;;;;5.13;4.57;;;-0.90;96.30;;;;;;5950844;23;20523;-80
2021/03/21 05:03:16;;;;;;;8.17;5.90;;;-1.00;96.30;;;;;;4977965;28;20524;-81
2021/03/21 05:05:46;;;;;;;5.43;4.57;;;-1.00;96.30;;;;;;4976119;28;20418;-81
2021/03/21 05:08:19;;;;;;;8.80;5.80;;;-1.00;96.30;;;;;;4978659;28;20410;-81
2021/03/21 05:10:52;;;;;;;8.07;5.17;;;-0.90;96.30;;;;;;4977259;28;20449;-81
2021/03/21 05:13:33;;;;;;;6.60;5.10;;;-0.90;96.30;;;;;;4977036;28;20457;-77
2021/03/21 05:16:22;;;;;;;6.23;5.10;;;-0.90;96.30;;;;;;4975388;28;20420;-77
2021/03/21 05:19:10;;;;;;;7.27;5.07;;;-0.80;96.30;;;;;;4974712;28;20938;-76
2021/03/21 05:21:49;;;;;;;8.93;4.90;;;-0.80;96.30;;;;;;4974686;28;21003;-76
2021/03/21 05:24:23;;;;;;;10.97;6.27;;;-0.80;96.30;;;;;;4975060;28;20426;-77
2021/03/21 05:27:07;;;;;;;10.07;5.83;;;-0.80;96.30;;;;;;4975048;28;20425;-77
2021/03/21 05:29:49;;;;;;;7.00;5.10;;;-0.80;96.30;;;;;;4974930;28;20401;-77
2021/03/21 05:32:17;;;;;;;6.70;5.60;;;-0.80;96.30;;;;;;4973637;28;20453;-78
2021/03/21 05:34:43;;;;;;;8.70;5.97;;;-0.80;96.30;;;;;;4974861;28;20414;-78
2021/03/21 05:37:34;;;;;;;6.87;5.93;;;-0.80;96.30;;;;;;4974273;28;20418;-77
2021/03/21 05:40:17;;;;;;;8.83;5.50;;;-0.80;96.30;;;;;;4974771;28;20409;-76
2021/03/21 05:43:16;;;;;;;11.90;6.33;;;-0.80;96.30;;;;;;4974820;28;20406;-77
2021/03/21 05:46:09;;;;;;;6.30;4.83;;;-0.80;96.30;;;;;;4974267;28;20418;-76
2021/03/21 05:48:57;;;;;;;6.83;5.73;;;-0.70;96.30;;;;;;4972931;28;20816;-77
2021/03/21 05:51:37;;;;;;;6.73;5.10;;;-0.70;96.30;;;;;;4973184;28;20436;-77
2021/03/21 05:54:32;;;;;;;13.73;5.90;;;-0.70;96.30;;;;;;4974195;28;20476;-78
2021/03/21 05:57:36;;;;;;;8.50;6.20;;;-0.70;96.30;;;;;;4973464;28;20414;-77
2021/03/21 06:00:11;;;;;;;8.83;5.77;;;-0.70;96.30;;;;;;4973832;28;20576;-78
2021/03/21 06:03:00;;;;;;;6.60;5.00;;;-0.70;96.30;;;;;;4974143;28;20962;-77
2021/03/21 06:06:03;;;;;;;7.73;5.03;;;-0.70;96.30;;;;;;4974276;28;20417;-77
2021/03/21 06:08:44;;;;;;;9.40;6.30;;;-0.60;96.30;;;;;;4972315;28;20509;-77
2021/03/21 06:11:35;;;;;;;7.73;6.20;;;-0.60;96.30;;;;;;4973882;28;20433;-77
2021/03/21 06:14:31;;;;;;;5.57;4.50;;;-0.70;96.30;;;;;;4973711;28;20464;-77
2021/03/21 06:17:15;;;;;;;10.40;6.07;;;-0.60;96.30;;;;;;4973440;28;20410;-78
2021/03/21 06:20:02;;;;;;;8.87;7.70;;;-0.60;96.30;;;;;;4973598;28;21112;-77
2021/03/21 06:22:50;;;;;;;10.00;7.30;;;-0.60;96.30;;;;;;4973577;28;20445;-77
2021/03/21 06:25:40;;;;;;;5.93;5.33;;;-0.60;96.30;;;;;;4973749;28;20417;-78
2021/03/21 06:28:42;;;;;;;8.20;5.47;;;-0.50;96.30;;;;;;4973138;28;20409;-78
2021/03/21 06:31:40;;;;;;;8.67;6.33;;;-0.50;96.30;;;;;;4972167;28;20445;-77
2021/03/21 06:34:26;;;;;;;7.67;6.60;;;-0.50;96.30;;;;;;4973612;28;20437;-77
2021/03/21 06:36:59;;;;;;;6.83;5.67;;;-0.50;96.30;;;;;;4972193;28;20449;-77
2021/03/21 06:39:43;;;;;;;8.13;6.53;;;-0.50;96.30;;;;;;4972279;28;20410;-77
2021/03/21 06:42:30;;;;;;;7.10;6.40;;;-0.40;96.30;;;;;;4973131;28;20422;-78
2021/03/21 06:45:27;;;;;;;10.50;5.73;;;-0.30;96.30;;;;;;4973525;28;20386;-78
2021/03/21 06:48:23;;;;;;;11.73;7.13;;;-0.40;96.30;;;;;;4972746;28;20809;-77
2021/03/21 06:51:07;;;;;;;9.50;5.93;;;-0.30;96.30;;;;;;4973386;28;20422;-77
2021/03/21 06:53:48;;;;;;;5.97;5.37;;;-0.30;96.30;;;;;;4973084;28;20961;-78
2021/03/21 06:56:30;;;;;;;6.90;5.47;;;-0.30;96.30;;;;;;4973361;28;20405;-77
2021/03/21 06:59:01;;;;;;;6.67;6.07;;;-0.30;96.30;;;;;;4971276;28;20394;-77
2021/03/21 07:01:28;;;;;;;7.90;5.97;;;-0.10;96.30;;;;;;4971709;28;21228;-77
2021/03/21 07:04:42;;;;;;;7.30;6.27;;;-0.10;96.30;;;;;;4972043;28;20874;-77
2021/03/21 07:07:39;;;;;;;8.53;5.30;;;-0.10;96.30;;;;;;4972547;28;20400;-77
2021/03/21 07:10:42;;;;;;;7.57;5.63;;;-0.20;96.30;;;;;;4973198;28;20468;-77
2021/03/21 07:13:35;;;;;;;7.03;5.83;;;-0.10;96.30;;;;;;4973109;28;20976;-78
2021/03/21 07:16:30;;;;;;;6.33;5.67;;;-0.10;96.30;;;;;;4973134;28;20456;-78
2021/03/21 07:19:24;;;;;;;6.00;4.93;;;-0.10;96.30;;;;;;4972562;28;20408;-77
2021/03/21 07:22:27;;;;;;;10.20;5.37;;;-0.10;96.30;;;;;;4972907;28;20429;-80
2021/03/21 07:25:30;;;;;;;7.17;5.60;;;-0.10;96.30;;;;;;4973320;28;20428;-78
2021/03/21 07:28:41;;;;;;;6.20;5.50;;;0.00;96.30;;;;;;4970982;28;20437;-78
2021/03/21 07:31:45;;;;;;;10.10;5.20;;;0.00;96.30;;;;;;4972730;28;20460;-78
2021/03/21 07:34:36;;;;;;;5.73;4.87;;;0.10;96.30;;;;;;4971693;28;20454;-78
2021/03/21 07:37:19;;;;;;;10.20;5.60;;;0.20;96.30;;;;;;4972178;28;20406;-77
2021/03/21 07:40:14;;;;;;;6.50;4.90;;;0.30;96.30;;;;;;4973176;28;20413;-78
2021/03/21 07:42:54;;;;;;;8.20;5.63;;;0.20;96.30;;;;;;4973038;28;20416;-78
2021/03/21 07:45:35;;;;;;;7.60;5.67;;;0.20;96.30;;;;;;4973155;28;20822;-77
2021/03/21 07:48:08;;;;;;;7.37;5.90;;;0.20;96.30;;;;;;4972437;28;20405;-78
2021/03/21 07:50:54;;;;;;;6.27;5.67;;;0.20;96.30;;;;;;4972460;28;20949;-78
2021/03/21 07:53:30;;;;;;;6.73;5.43;;;0.20;96.30;;;;;;4972981;28;20844;-77
2021/03/21 07:56:18;;;;;;;5.83;5.00;;;0.30;96.30;;;;;;4971640;28;20422;-78
2021/03/21 07:58:49;;;;;;;5.67;4.63;;;0.50;96.30;;;;;;4972296;28;20441;-78
2021/03/21 08:01:19;;;;;;;5.97;5.00;;;0.50;96.30;;;;;;4972778;28;20449;-80
2021/03/21 08:04:01;;;;;;;4.70;3.60;;;0.50;96.30;;;;;;4972519;28;20429;-79
2021/03/21 08:06:33;;;;;;;4.83;4.40;;;0.50;96.30;;;;;;4972737;28;20886;-78
2021/03/21 08:09:16;;;;;;;5.63;4.90;;;0.40;96.30;;;;;;4972251;28;20456;-78
2021/03/21 08:11:50;;;;;;;6.90;4.00;;;0.50;96.30;;;;;;4975882;28;20442;-78
2021/03/21 08:14:28;;;;;;;5.40;4.43;;;0.60;96.30;;;;;;4976177;28;20806;-79
2021/03/21 08:16:58;;;;;;;5.50;5.00;;;0.70;96.30;;;;;;4975740;28;20912;-83
2021/03/21 08:19:31;;;;;;;4.23;3.83;;;0.50;96.30;;;;;;4974597;28;20468;-79
2021/03/21 08:21:57;;;;;;;6.87;3.50;;;0.60;96.30;;;;;;4979283;28;20499;-78
2021/03/21 08:24:27;;;;;;;6.30;4.50;;;0.50;96.30;;;;;;4982573;28;20429;-78
2021/03/21 08:26:53;;;;;;;4.97;4.13;;;0.50;96.30;;;;;;4977697;28;20429;-78
2021/03/21 08:29:25;;;;;;;5.10;4.60;;;0.50;96.30;;;;;;4975622;28;20414;-78
2021/03/21 08:32:02;;;;;;;7.17;4.23;;;0.50;96.30;;;;;;4978834;28;20200;-78
2021/03/21 08:34:38;;;;;;;4.20;3.57;;;0.50;96.30;;;;;;4984827;28;20428;-78
2021/03/21 08:37:17;;;;;;;7.50;4.60;;;0.60;96.30;;;;;;4966345;28;20460;-80
2021/03/21 08:39:50;;;;;;;4.47;4.07;;;0.60;96.30;;;;;;4965147;28;20397;-78
2021/03/21 08:42:33;;;;;;;4.47;4.07;;;0.50;96.30;;;;;;4973170;28;20808;-77
2021/03/21 08:45:28;;;;;;;5.53;4.37;;;0.60;96.30;;;;;;4966204;28;20405;-77
2021/03/21 08:48:02;;;;;;;3.40;3.10;;;0.60;96.30;;;;;;4988193;28;20462;-77
2021/03/21 08:50:46;;;;;;;5.73;5.07;;;0.70;96.30;;;;;;4986858;28;20497;-77
2021/03/21 08:53:52;;;;;;;7.07;5.00;;;0.80;96.30;;;;;;4975012;28;20804;-78
2021/03/21 08:56:38;;;;;;;4.93;4.27;;;0.80;96.30;;;;;;4974263;28;20414;-77
2021/03/21 08:59:06;;;;;;;4.40;4.00;;;0.90;96.30;;;;;;4975466;28;20394;-78
2021/03/21 09:01:32;;;;;;;6.83;4.10;;;0.90;96.30;;;;;;4975579;28;20449;-78
2021/03/21 09:04:17;;;;;;;5.03;4.53;;;1.10;96.30;;;;;;4975664;28;20782;-77
2021/03/21 09:06:45;;;;;;;4.37;3.97;;;1.10;96.30;;;;;;4974847;28;20396;-76
2021/03/21 09:09:23;;;;;;;4.53;4.13;;;1.10;96.30;;;;;;4973818;28;20984;-79
2021/03/21 09:11:58;;;;;;;5.37;4.63;;;1.10;96.30;;;;;;4988814;28;20451;-78
2021/03/21 09:14:34;;;;;;;5.80;5.20;;;1.00;96.30;;;;;;4975197;28;20832;-78
2021/03/21 09:17:19;;;;;;;5.30;4.23;;;1.10;96.30;;;;;;4974687;28;20767;-78
2021/03/21 09:19:46;;;;;;;4.67;4.20;;;1.20;96.30;;;;;;4973916;28;20416;-77
2021/03/21 09:22:28;;;;;;;5.07;4.23;;;1.20;96.30;;;;;;4974046;28;20450;-78
2021/03/21 09:25:00;;;;;;;5.17;4.37;;;1.10;96.30;;;;;;4975242;28;20897;-80
2021/03/21 09:27:35;;;;;;;5.00;4.50;;;1.10;96.30;;;;;;4974675;28;20896;-78
2021/03/21 09:30:28;;;;;;;5.77;4.63;;;1.10;96.30;;;;;;4975018;28;20460;-79
2021/03/21 09:32:59;;;;;;;5.53;3.83;;;1.20;96.30;;;;;;4974881;28;20448;-80
2021/03/21 09:35:40;;;;;;;4.70;4.13;;;1.20;96.30;;;;;;4975019;28;20514;-78
2021/03/21 09:38:15;;;;;;;5.20;4.60;;;1.20;96.30;;;;;;4954998;28;20427;-78
2021/03/21 09:40:49;;;;;;;4.30;3.90;;;1.30;96.30;;;;;;4955478;28;20449;-79
2021/03/21 09:43:26;;;;;;;7.50;4.10;;;1.30;96.30;;;;;;4955534;28;20417;-79
2021/03/21 09:46:09;;;;;;;5.23;4.70;;;1.50;96.30;;;;;;4955402;28;20394;-79
2021/03/21 09:48:44;;;;;;;8.27;4.60;;;1.50;96.30;;;;;;4953136;28;20403;-79
2021/03/21 09:51:23;;;;;;;5.03;4.50;;;1.60;96.30;;;;;;4965325;28;20440;-80
2021/03/21 09:54:03;;;;;;;5.20;4.17;;;1.60;96.30;;;;;;4964033;28;20445;-77
2021/03/21 09:56:44;;;;;;;4.50;4.10;;;1.50;96.30;;;;;;4976516;28;21004;-79
2021/03/21 09:59:24;;;;;;;4.80;4.30;;;1.50;96.30;;;;;;4979383;28;20515;-78
2021/03/21 10:01:58;;;;;;;4.27;3.87;;;1.50;96.30;;;;;;4985900;28;21012;-78
2021/03/21 10:04:44;;;;;;;5.60;4.77;;;1.50;96.30;;;;;;4979460;28;20448;-79
2021/03/21 10:07:30;;;;;;;3.37;3.07;;;1.50;96.30;;;;;;4959124;28;20406;-81
2021/03/21 10:09:58;;;;;;;4.70;4.00;;;1.50;96.30;;;;;;4975203;28;20425;-79
2021/03/21 10:12:24;;;;;;;4.97;4.47;;;1.50;96.30;;;;;;4978464;28;20473;-78
2021/03/21 10:14:59;;;;;;;4.20;3.80;;;1.50;96.30;;;;;;4977779;28;20793;-78
2021/03/21 10:17:28;;;;;;;4.53;4.03;;;1.60;96.30;;;;;;4966573;28;20424;-79
2021/03/21 10:19:56;;;;;;;4.40;4.00;;;1.60;96.30;;;;;;4981212;28;20416;-79
2021/03/21 10:22:24;;;;;;;4.07;3.43;;;1.50;96.30;;;;;;4984298;28;20473;-80
2021/03/21 10:24:55;;;;;;;4.00;3.50;;;1.50;96.30;;;;;;4973261;28;20424;-79
2021/03/21 10:27:22;;;;;;;3.97;3.57;;;1.50;96.30;;;;;;4987677;28;20406;-79
2021/03/21 10:30:04;;;;;;;4.30;3.90;;;1.50;96.30;;;;;;4977384;28;20417;-79
2021/03/21 10:32:32;;;;;;;5.23;3.30;;;1.50;96.30;;;;;;4974979;28;20464;-77
2021/03/21 10:34:59;;;;;;;3.83;3.50;;;1.50;96.30;;;;;;4974495;28;20450;-77
2021/03/21 10:37:40;;;;;;;4.60;3.97;;;1.60;96.30;;;;;;4976270;28;20827;-79
2021/03/21 10:40:25;;;;;;;5.33;4.20;;;1.60;96.30;;;;;;4984348;28;20862;-77
2021/03/21 10:43:02;;;;;;;4.97;3.93;;;1.50;96.30;;;;;;4982492;28;20428;-79
2021/03/21 10:45:34;;;;;;;4.60;4.20;;;1.60;96.30;;;;;;4979854;28;20853;-78
2021/03/21 10:48:19;;;;;;;4.23;3.77;;;1.60;96.30;;;;;;4986074;28;20931;-80
2021/03/21 10:50:59;;;;;;;5.53;4.10;;;1.60;96.30;;;;;;4974095;28;20477;-80
2021/03/21 10:53:32;;;;;;;4.60;3.93;;;1.60;96.30;;;;;;4971920;28;20461;-79
2021/03/21 10:56:09;;;;;;;5.30;4.60;;;1.70;96.30;;;;;;4973590;28;20917;-78
2021/03/21 10:58:37;;;;;;;5.80;4.70;;;1.60;96.30;;;;;;4970773;28;20871;-79
2021/03/21 11:01:25;;;;;;;7.30;5.30;;;1.70;96.30;;;;;;4973161;28;20508;-81
2021/03/21 11:03:58;;;;;;;4.87;4.13;;;1.70;96.30;;;;;;4973634;28;20497;-78
2021/03/21 11:06:27;;;;;;;6.33;5.17;;;1.70;96.30;;;;;;4972606;28;20433;-77
2021/03/21 11:08:53;;;;;;;6.83;5.10;;;1.70;96.30;;;;;;4972800;28;20426;-78
2021/03/21 11:11:33;;;;;;;4.90;4.40;;;1.80;96.30;;;;;;4973348;28;20453;-77
2021/03/21 11:14:14;;;;;;;5.10;4.60;;;1.80;96.30;;;;;;4968728;28;20461;-79
2021/03/21 11:16:48;;;;;;;4.77;3.77;;;1.70;96.30;;;;;;4967617;28;20979;-80
2021/03/21 11:19:15;;;;;;;5.60;5.00;;;1.70;96.30;;;;;;4959464;28;20501;-77
2021/03/21 11:21:42;;;;;;;5.93;4.27;;;1.70;96.30;;;;;;4954142;28;20802;-78
2021/03/21 11:24:27;;;;;;;6.30;5.70;;;1.80;96.30;;;;;;4952744;28;20490;-78
2021/03/21 11:26:53;;;;;;;7.50;5.50;;;1.90;96.30;;;;;;4972716;28;20410;-79
2021/03/21 11:29:30;;;;;;;7.03;5.40;;;1.90;96.30;;;;;;4972913;28;20480;-76
2021/03/21 11:32:03;;;;;;;8.40;4.80;;;1.90;96.30;;;;;;4973382;28;20425;-76
2021/03/21 11:34:35;;;;;;;5.90;5.00;;;2.00;96.30;;;;;;4971875;28;20818;-78
2021/03/21 11:37:38;;;;;;;7.13;5.20;;;2.00;96.30;;;;;;4972611;28;20406;-76
2021/03/21 11:40:07;;;;;;;5.33;4.83;;;2.00;96.30;;;;;;4971935;28;20480;-76
2021/03/21 11:42:36;;;;;;;5.53;4.77;;;2.00;96.30;;;;;;4973038;28;20425;-76
2021/03/21 11:45:28;;;;;;;5.40;4.67;;;2.10;96.30;;;;;;4974761;28;20467;-77
2021/03/21 11:47:57;;;;;;;4.80;4.30;;;2.00;96.30;;;;;;4975125;28;20406;-77
2021/03/21 11:50:31;;;;;;;5.70;5.17;;;2.10;96.30;;;;;;4980534;28;20421;-78
2021/03/21 11:52:59;;;;;;;6.60;5.77;;;2.20;96.30;;;;;;4967727;28;20467;-81
2021/03/21 11:55:30;;;;;;;6.90;6.30;;;2.30;96.30;;;;;;4973209;28;20420;-77
2021/03/21 11:58:25;;;;;;;6.47;5.83;;;2.40;96.30;;;;;;4970268;28;20418;-77
2021/03/21 12:00:59;;;;;;;9.70;7.80;;;2.60;96.30;;;;;;4982319;28;20457;-77
2021/03/21 12:03:26;;;;;;;13.63;7.23;;;2.90;96.30;;;;;;4994698;28;20428;-77
2021/03/21 12:06:01;;;;;;;6.77;5.63;;;3.00;96.30;;;;;;4982149;28;20449;-79
2021/03/21 12:08:39;;;;;;;7.40;6.70;;;2.70;96.30;;;;;;4987390;28;20520;-77
2021/03/21 12:11:25;;;;;;;7.40;5.93;;;2.80;96.30;;;;;;4989736;28;20448;-77
2021/03/21 12:13:55;;;;;;;6.87;5.90;;;2.90;96.30;;;;;;4990723;28;20952;-77
2021/03/21 12:16:37;;;;;;;12.43;6.80;;;3.20;96.30;;;;;;4982417;28;20814;-77
2021/03/21 12:19:07;;;;;;;8.23;5.83;;;3.50;96.30;;;;;;4966505;28;20408;-76
2021/03/21 12:21:38;;;;;;;10.00;6.50;;;3.70;96.30;;;;;;4985360;28;20492;-78
2021/03/21 12:24:12;;;;;;;11.23;4.67;;;3.50;96.30;;;;;;4982287;28;20868;-76
2021/03/21 12:26:44;;;;;;;7.37;3.30;;;3.30;96.30;;;;;;4985104;28;20418;-76
2021/03/21 12:29:33;;;;;;;10.30;3.97;;;3.20;96.30;;;;;;4974699;28;20425;-76
2021/03/21 12:32:26;;;;;;;13.13;4.53;;;3.30;96.30;;;;;;4988826;28;20433;-77
2021/03/21 12:34:53;;;;;;;9.60;3.67;;;3.50;96.30;;;;;;4989665;28;20405;-76
2021/03/21 12:37:21;;;;;;;5.10;2.87;;;3.70;96.30;;;;;;4988835;28;21115;-77
2021/03/21 12:40:04;;;;;;;15.57;4.50;;;3.90;96.30;;;;;;4974947;28;21178;-76
2021/03/21 12:42:39;;;;;;;5.97;2.60;;;4.00;96.30;;;;;;4978591;28;20432;-77
2021/03/21 12:45:04;;;;;;;14.40;3.70;;;4.00;96.30;;;;;;4976109;28;20413;-76
2021/03/21 12:47:36;;;;;;;15.67;4.17;;;4.00;96.30;;;;;;4961371;28;20760;-77
2021/03/21 12:50:35;;;;;;;17.20;4.60;;;3.90;96.30;;;;;;4981754;28;20167;-80
2021/03/21 12:53:04;;;;;;;23.10;6.10;;;3.80;96.30;;;;;;4988804;28;20484;-76
2021/03/21 12:55:30;;;;;;;15.63;5.87;;;3.80;96.30;;;;;;4991550;28;20552;-77
2021/03/21 12:57:55;;;;;;;11.30;4.73;;;3.70;96.30;;;;;;4978987;28;20437;-76
2021/03/21 13:00:32;;;;;;;15.20;3.50;;;3.80;96.30;;;;;;4985797;28;20174;-77
2021/03/21 13:03:01;;;;;;;10.27;3.03;;;3.90;96.30;;;;;;4981160;28;20189;-77
2021/03/21 13:05:34;;;;;;;21.57;4.57;;;3.90;96.30;;;;;;4985406;28;20827;-81
2021/03/21 13:08:00;;;;;;;12.00;2.73;;;3.80;96.30;;;;;;4992476;28;20492;-76
2021/03/21 13:10:27;;;;;;;15.10;2.70;;;3.70;96.30;;;;;;4984447;28;20445;-77
2021/03/21 13:12:53;;;;;;;8.60;2.93;;;3.40;96.30;;;;;;4984234;28;20453;-77
2021/03/21 13:15:20;;;;;;;11.87;3.77;;;3.20;96.30;;;;;;4987353;28;20412;-77
2021/03/21 13:17:46;;;;;;;11.03;3.60;;;3.00;96.30;;;;;;4986334;28;20421;-77
2021/03/21 13:20:16;;;;;;;15.40;5.10;;;2.90;96.30;;;;;;4982969;28;20409;-77
2021/03/21 13:22:42;;;;;;;21.47;5.83;;;2.80;96.30;;;;;;4975359;28;20430;-79
2021/03/21 13:25:09;;;;;;;16.43;6.23;;;2.70;96.30;;;;;;4987827;28;20857;-77
2021/03/21 13:27:35;;;;;;;13.53;5.70;;;2.60;96.30;;;;;;4979692;28;20262;-77
2021/03/21 13:30:00;;;;;;;20.00;4.43;;;2.60;96.30;;;;;;4982820;28;20494;-77
2021/03/21 13:32:26;;;;;;;11.50;3.40;;;2.60;96.30;;;;;;4972568;28;20195;-77
2021/03/21 13:34:52;;;;;;;20.40;5.10;;;2.50;96.30;;;;;;4980278;28;20188;-78
2021/03/21 13:37:20;;;;;;;29.53;5.03;;;2.40;96.30;;;;;;4988514;28;20585;-77
2021/03/21 13:39:48;;;;;;;16.93;3.10;;;2.40;96.30;;;;;;4968378;28;20427;-77
2021/03/21 13:42:15;;;;;;;17.70;4.50;;;2.30;96.30;;;;;;4989294;28;20822;-77
2021/03/21 13:44:42;;;;;;;8.90;3.40;;;2.40;96.30;;;;;;4985144;28;20409;-77
2021/03/21 13:47:09;;;;;;;14.50;4.23;;;2.30;96.30;;;;;;4988793;28;20836;-78
2021/03/21 13:49:35;;;;;;;12.10;4.10;;;2.30;96.30;;;;;;4994403;28;20420;-77
2021/03/21 13:52:01;;;;;;;21.27;5.00;;;2.40;96.30;;;;;;4985645;28;20496;-78
2021/03/21 13:54:26;;;;;;;21.67;3.57;;;2.30;96.30;;;;;;4987973;28;20832;-77
2021/03/21 13:56:53;;;;;;;17.27;3.00;;;2.30;96.30;;;;;;4994555;28;20971;-82
2021/03/21 13:59:18;;;;;;;18.73;3.93;;;2.30;96.30;;;;;;4988278;28;20260;-77
2021/03/21 14:01:44;;;;;;;27.50;5.40;;;2.30;96.30;;;;;;4992105;28;20484;-77
2021/03/21 14:04:09;;;;;;;15.53;4.60;;;2.40;96.30;;;;;;4978852;28;20729;-77
2021/03/21 14:06:35;;;;;;;18.00;5.00;;;2.40;96.30;;;;;;4989263;28;20186;-77
2021/03/21 14:09:00;;;;;;;22.20;5.47;;;2.40;96.30;;;;;;4978370;28;20185;-77
2021/03/21 14:11:27;;;;;;;32.40;7.47;;;2.40;96.30;;;;;;4990116;28;20256;-78
2021/03/21 14:13:52;;;;;;;18.77;6.10;;;2.30;96.30;;;;;;4992887;28;20201;-78
2021/03/21 14:16:18;;;;;;;14.57;5.47;;;2.30;96.30;;;;;;4982164;28;20428;-79
2021/03/21 14:18:44;;;;;;;24.20;6.90;;;2.30;96.30;;;;;;4987530;28;20683;-80
2021/03/21 14:21:09;;;;;;;18.40;4.97;;;2.30;96.30;;;;;;4992298;28;20212;-79
2021/03/21 14:23:35;;;;;;;23.00;4.90;;;2.40;96.30;;;;;;4988779;28;20544;-80
2021/03/21 14:26:00;;;;;;;18.23;5.00;;;2.40;96.30;;;;;;4991799;28;20268;-79
2021/03/21 14:28:27;;;;;;;35.00;9.60;;;2.40;96.30;;;;;;4985360;28;20182;-79
2021/03/21 14:30:53;;;;;;;24.57;7.30;;;2.40;96.30;;;;;;4986643;28;20200;-80
2021/03/21 14:33:21;;;;;;;23.83;5.77;;;2.40;96.30;;;;;;4961921;28;20866;-79
2021/03/21 14:35:47;;;;;;;19.87;5.63;;;2.40;96.30;;;;;;4984449;28;20410;-79
2021/03/21 14:38:19;;;;;;;23.03;6.50;;;2.30;96.30;;;;;;4982918;28;20512;-79
2021/03/21 14:40:46;;;;;;;23.10;6.10;;;2.30;96.30;;;;;;4987831;28;20440;-79
2021/03/21 14:43:14;;;;;;;23.70;5.57;;;2.30;96.30;;;;;;4976558;28;20433;-79
2021/03/21 14:45:40;;;;;;;13.97;4.60;;;2.20;96.30;;;;;;4976835;28;20888;-79
2021/03/21 14:48:07;;;;;;;21.47;5.47;;;2.20;96.30;;;;;;4991887;28;20440;-78
2021/03/21 14:50:33;;;;;;;17.47;6.13;;;2.30;96.30;;;;;;4991241;28;20201;-78
2021/03/21 14:52:59;;;;;;;29.13;6.00;;;2.40;96.30;;;;;;4990838;28;20452;-78
2021/03/21 14:55:28;;;;;;;20.97;6.17;;;2.40;96.30;;;;;;4992315;28;20409;-78
2021/03/21 14:57:55;;;;;;;23.23;5.97;;;2.40;96.30;;;;;;4989813;28;20181;-79
2021/03/21 15:00:33;;;;;;;23.97;5.20;;;2.40;96.30;;;;;;4993169;28;20771;-78
2021/03/21 15:03:00;;;;;;;22.10;4.70;;;2.40;96.30;;;;;;4992083;28;20405;-79
2021/03/21 15:05:27;;;;;;;25.07;5.00;;;2.40;96.30;;;;;;4992976;28;20424;-81
2021/03/21 15:07:52;;;;;;;20.63;4.80;;;2.40;96.30;;;;;;4973717;28;20422;-80
2021/03/21 15:10:20;;;;;;;28.87;4.43;;;2.50;96.30;;;;;;4994509;28;20424;-83
2021/03/21 15:12:45;;;;;;;17.83;4.60;;;2.60;96.30;;;;;;4995886;28;20197;-79
2021/03/21 15:15:31;;;;;;;25.20;5.40;;;2.60;96.30;;;;;;4991786;28;20423;-78
2021/03/21 15:17:57;;;;;;;21.70;4.10;;;2.70;96.30;;;;;;4971309;28;20224;-80
2021/03/21 15:20:26;;;;;;;26.90;4.37;;;2.70;96.30;;;;;;4980150;28;20828;-80
2021/03/21 15:22:53;;;;;;;20.20;5.43;;;2.70;96.30;;;;;;4996508;28;20459;-79
2021/03/21 15:25:21;;;;;;;25.27;5.00;;;2.80;96.30;;;;;;4995161;28;20427;-80
2021/03/21 15:27:46;;;;;;;22.17;5.73;;;2.90;96.30;;;;;;4993504;28;20420;-79
2021/03/21 15:30:13;;;;;;;29.90;5.30;;;2.90;96.30;;;;;;4989629;28;20428;-78
2021/03/21 15:32:38;;;;;;;26.27;4.47;;;2.90;96.30;;;;;;4972875;28;20185;-78
2021/03/21 15:35:05;;;;;;;15.80;3.80;;;2.90;96.30;;;;;;4998376;28;20417;-79
2021/03/21 15:37:31;;;;;;;22.00;4.47;;;3.00;96.30;;;;;;4995918;28;20247;-79
2021/03/21 15:39:56;;;;;;;12.13;3.47;;;2.90;96.30;;;;;;4987046;28;20921;-79
2021/03/21 15:42:22;;;;;;;22.93;4.83;;;2.90;96.30;;;;;;4978488;28;20202;-79
2021/03/21 15:44:48;;;;;;;17.90;4.80;;;2.90;96.30;;;;;;4955805;28;20187;-79
2021/03/21 15:47:14;;;;;;;21.67;4.73;;;2.90;96.30;;;;;;4958135;28;20629;-79
2021/03/21 15:49:39;;;;;;;21.93;4.53;;;2.90;96.30;;;;;;4958116;28;20446;-79
2021/03/21 15:52:06;;;;;;;24.27;5.13;;;2.90;96.30;;;;;;4958526;28;20680;-79
2021/03/21 15:54:31;;;;;;;19.73;3.80;;;2.90;96.30;;;;;;4958319;28;20289;-79
2021/03/21 15:56:57;;;;;;;19.27;4.50;;;2.80;96.30;;;;;;4955956;28;20915;-80
2021/03/21 15:59:22;;;;;;;17.20;3.70;;;2.90;96.30;;;;;;4957479;28;20230;-80
2021/03/21 16:01:48;;;;;;;21.47;5.00;;;2.80;96.30;;;;;;4958240;28;20215;-79
2021/03/21 16:04:13;;;;;;;20.40;4.80;;;2.80;96.30;;;;;;4959297;28;20541;-79
2021/03/21 16:06:39;;;;;;;37.00;5.70;;;2.80;96.30;;;;;;4959443;28;20183;-79
2021/03/21 16:09:05;;;;;;;22.97;5.23;;;2.80;96.30;;;;;;4958242;28;20261;-79
2021/03/21 16:11:31;;;;;;;17.37;5.17;;;2.80;96.30;;;;;;4959036;28;20202;-79
2021/03/21 16:13:57;;;;;;;30.17;5.07;;;2.80;96.30;;;;;;4958828;28;20273;-80
2021/03/21 16:16:23;;;;;;;28.57;5.03;;;2.90;96.30;;;;;;4965052;28;20929;-81
2021/03/21 16:18:49;;;;;;;19.23;5.53;;;;;;;;;;4979129;28;20210;-79
2021/03/21 16:21:16;;;;;;;30.87;7.23;;;2.80;96.30;;;;;;4981203;28;20210;-79
2021/03/21 16:23:43;;;;;;;15.20;3.63;;;2.80;96.30;;;;;;4981159;28;20999;-80
2021/03/21 16:26:10;;;;;;;26.80;5.10;;;2.80;96.30;;;;;;4977699;28;20429;-79
2021/03/21 16:28:35;;;;;;;25.47;5.80;;;2.80;96.30;;;;;;4976003;28;20420;-79
2021/03/21 16:31:01;;;;;;;17.17;4.57;;;2.70;96.30;;;;;;4977674;28;20442;-79
2021/03/21 16:33:28;;;;;;;22.93;5.07;;;2.80;96.30;;;;;;4977971;28;20217;-79
2021/03/21 16:35:54;;;;;;;23.60;5.37;;;2.70;96.30;;;;;;4981038;28;20558;-79
2021/03/21 16:38:20;;;;;;;22.03;4.67;;;2.70;96.30;;;;;;4980029;28;20449;-80
2021/03/21 16:40:55;;;;;;;18.20;5.70;;;2.70;96.30;;;;;;4990830;28;20440;-79
2021/03/21 16:43:25;;;;;;;24.63;6.90;;;2.70;96.30;;;;;;4982414;28;20470;-79
2021/03/21 16:45:55;;;;;;;24.73;5.43;;;2.70;96.30;;;;;;4981180;28;20467;-79
2021/03/21 16:48:24;;;;;;;18.53;4.97;;;2.70;96.30;;;;;;4994946;28;20421;-79
2021/03/21 16:50:50;;;;;;;26.83;5.57;;;2.70;96.30;;;;;;4992217;28;20727;-80
2021/03/21 16:53:17;;;;;;;28.77;5.80;;;2.70;96.30;;;;;;4988714;28;20457;-79
2021/03/21 16:55:42;;;;;;;25.23;4.30;;;2.70;96.30;;;;;;4982642;28;20406;-79
2021/03/21 16:58:08;;;;;;;27.80;4.97;;;2.70;96.30;;;;;;4985767;28;20480;-79
2021/03/21 17:00:34;;;;;;;17.50;4.10;;;2.60;96.30;;;;;;4984427;28;20303;-81
2021/03/21 17:03:00;;;;;;;24.30;4.83;;;2.60;96.30;;;;;;4978349;28;20190;-78
2021/03/21 17:05:28;;;;;;;21.73;4.80;;;2.60;96.30;;;;;;4981420;28;20174;-79
2021/03/21 17:07:53;;;;;;;19.60;4.33;;;2.60;96.30;;;;;;4981098;28;21250;-78
2021/03/21 17:10:23;;;;;;;21.63;4.57;;;2.60;96.30;;;;;;4987118;28;20459;-77
2021/03/21 17:12:49;;;;;;;20.90;5.60;;;2.60;96.30;;;;;;4989383;28;20285;-77
2021/03/21 17:15:15;;;;;;;22.53;5.60;;;2.60;96.30;;;;;;4979401;28;20500;-78
2021/03/21 17:17:41;;;;;;;20.30;4.70;;;2.60;96.30;;;;;;4988561;28;20575;-78
2021/03/21 17:20:12;;;;;;;26.73;4.70;;;2.60;96.30;;;;;;4978479;28;20898;-77
2021/03/21 17:22:37;;;;;;;23.90;5.10;;;2.60;96.30;;;;;;4971774;28;20801;-77
2021/03/21 17:25:06;;;;;;;22.97;4.60;;;2.70;96.30;;;;;;4975257;28;20421;-79